createdAt,value
2018-06-27T00:00:49.666Z,21.30
2018-06-27T00:03:18.496Z,21.30
2018-06-27T00:05:47.327Z,21.30
2018-06-27T00:08:16.147Z,21.30
2018-06-27T00:10:44.993Z,21.20
2018-06-27T00:13:13.826Z,21.20
2018-06-27T00:15:42.671Z,21.20
2018-06-27T00:18:11.517Z,21.20
2018-06-27T00:20:40.410Z,21.20
2018-06-27T00:23:09.372Z,21.20
2018-06-27T00:25:38.378Z,21.20
2018-06-27T00:28:07.379Z,21.20
2018-06-27T00:33:04.690Z,21.20
2018-06-27T00:35:33.542Z,21.20
2018-06-27T00:38:02.373Z,21.20
2018-06-27T00:40:31.214Z,21.20
2018-06-27T00:43:00.052Z,21.20
2018-06-27T00:45:28.874Z,21.10
2018-06-27T00:47:57.703Z,21.10
2018-06-27T00:50:26.592Z,21.10
2018-06-27T00:52:55.447Z,21.10
2018-06-27T00:55:25.109Z,21.10
2018-06-27T00:57:53.952Z,21.10
2018-06-27T01:00:22.801Z,21.10
2018-06-27T01:02:51.618Z,21.00
2018-06-27T01:05:20.521Z,21.10
2018-06-27T01:07:49.342Z,21.10
2018-06-27T01:10:18.190Z,21.00
2018-06-27T01:12:47.058Z,21.00
2018-06-27T01:15:15.906Z,21.00
2018-06-27T01:17:50.973Z,21.00
2018-06-27T01:20:19.828Z,21.00
2018-06-27T01:22:48.838Z,21.00
2018-06-27T01:25:17.763Z,21.00
2018-06-27T01:27:47.170Z,21.00
2018-06-27T01:32:44.519Z,21.00
2018-06-27T01:35:13.757Z,20.90
2018-06-27T01:37:42.590Z,20.90
2018-06-27T01:40:11.437Z,20.90
2018-06-27T01:42:40.279Z,20.90
2018-06-27T01:45:09.159Z,20.90
2018-06-27T01:47:37.986Z,20.90
2018-06-27T01:50:06.850Z,20.90
2018-06-27T01:52:35.814Z,20.90
2018-06-27T01:55:04.737Z,20.90
2018-06-27T01:57:33.563Z,20.90
2018-06-27T02:00:02.504Z,20.90
2018-06-27T02:02:31.282Z,20.80
2018-06-27T02:05:00.123Z,20.80
2018-06-27T02:07:29.025Z,20.80
2018-06-27T02:09:57.827Z,20.80
2018-06-27T02:12:26.654Z,20.80
2018-06-27T02:14:55.498Z,20.80
2018-06-27T02:17:24.359Z,20.80
2018-06-27T02:22:21.719Z,20.80
2018-06-27T02:24:50.591Z,20.80
2018-06-27T02:27:19.557Z,20.80
2018-06-27T02:29:48.390Z,20.70
2018-06-27T02:32:17.239Z,20.70
2018-06-27T02:34:46.075Z,20.70
2018-06-27T02:37:14.914Z,20.70
2018-06-27T02:39:43.760Z,20.70
2018-06-27T02:42:12.886Z,20.70
2018-06-27T02:44:41.743Z,20.70
2018-06-27T02:47:10.576Z,20.70
2018-06-27T02:49:39.408Z,20.70
2018-06-27T02:52:08.246Z,20.70
2018-06-27T02:54:37.075Z,20.70
2018-06-27T02:57:06.183Z,20.70
2018-06-27T02:59:35.032Z,20.60
2018-06-27T03:02:03.862Z,20.60
2018-06-27T03:04:32.702Z,20.60
2018-06-27T03:07:01.681Z,20.60
2018-06-27T03:09:30.527Z,20.60
2018-06-27T03:11:59.419Z,20.60
2018-06-27T03:14:28.422Z,20.60
2018-06-27T03:16:57.394Z,20.60
2018-06-27T03:19:26.228Z,20.50
2018-06-27T03:21:55.095Z,20.60
2018-06-27T03:24:23.935Z,20.50
2018-06-27T03:26:52.815Z,20.60
2018-06-27T03:29:21.714Z,20.50
2018-06-27T03:31:50.547Z,20.50
2018-06-27T03:34:19.382Z,20.50
2018-06-27T03:36:48.227Z,20.50
2018-06-27T03:39:17.147Z,20.50
2018-06-27T03:41:45.981Z,20.60
2018-06-27T03:44:14.863Z,20.50
2018-06-27T03:46:43.783Z,20.50
2018-06-27T03:49:12.644Z,20.60
2018-06-27T03:51:41.626Z,20.60
2018-06-27T03:54:10.442Z,20.60
2018-06-27T03:56:39.312Z,20.60
2018-06-27T04:01:36.686Z,20.70
2018-06-27T04:04:05.561Z,20.80
2018-06-27T04:06:34.389Z,20.80
2018-06-27T04:09:04.165Z,20.90
2018-06-27T04:11:32.978Z,20.90
2018-06-27T04:14:01.818Z,21.00
2018-06-27T04:16:30.650Z,21.00
2018-06-27T04:18:59.515Z,21.10
2018-06-27T04:21:28.344Z,21.20
2018-06-27T04:23:57.170Z,21.50
2018-06-27T04:26:26.175Z,21.80
2018-06-27T04:28:55.098Z,22.10
2018-06-27T04:31:23.918Z,22.30
2018-06-27T04:33:52.806Z,22.50
2018-06-27T04:36:21.630Z,22.60
2018-06-27T04:38:50.635Z,22.20
2018-06-27T04:41:19.520Z,22.00
2018-06-27T04:43:48.347Z,22.00
2018-06-27T04:46:17.195Z,22.00
2018-06-27T04:48:45.998Z,22.10
2018-06-27T04:53:43.310Z,22.00
2018-06-27T04:56:12.118Z,21.80
2018-06-27T04:58:41.010Z,21.80
2018-06-27T05:01:10.039Z,21.80
2018-06-27T05:06:07.326Z,21.90
2018-06-27T05:08:36.146Z,21.90
2018-06-27T05:11:04.963Z,21.90
2018-06-27T05:13:33.782Z,21.90
2018-06-27T05:16:02.660Z,21.90
2018-06-27T05:18:31.414Z,21.90
2018-06-27T05:21:00.225Z,22.00
2018-06-27T05:23:29.050Z,21.90
2018-06-27T05:25:57.890Z,21.90
2018-06-27T05:28:26.686Z,21.90
2018-06-27T05:30:55.498Z,21.90
2018-06-27T05:33:24.330Z,21.90
2018-06-27T05:35:53.150Z,21.90
2018-06-27T05:40:50.474Z,22.00
2018-06-27T05:43:19.293Z,22.00
2018-06-27T05:45:48.100Z,22.00
2018-06-27T05:48:16.910Z,22.00
2018-06-27T05:50:45.784Z,22.00
2018-06-27T05:53:14.600Z,22.00
2018-06-27T05:55:43.414Z,22.00
2018-06-27T05:58:12.309Z,21.90
2018-06-27T06:00:41.039Z,22.00
2018-06-27T06:03:09.854Z,22.10
2018-06-27T06:05:38.666Z,22.00
2018-06-27T06:08:07.486Z,22.10
2018-06-27T06:10:36.294Z,22.10
2018-06-27T06:13:05.150Z,22.00
2018-06-27T06:15:33.966Z,22.10
2018-06-27T06:18:02.804Z,22.10
2018-06-27T06:20:31.614Z,22.10
2018-06-27T06:23:00.435Z,22.10
2018-06-27T06:25:29.335Z,22.10
2018-06-27T06:27:58.090Z,22.10
2018-06-27T06:30:26.910Z,22.10
2018-06-27T06:32:55.724Z,22.10
2018-06-27T06:35:24.530Z,22.20
2018-06-27T06:37:53.386Z,22.20
2018-06-27T06:40:22.263Z,22.10
2018-06-27T06:42:51.106Z,22.00
2018-06-27T06:45:19.922Z,22.00
2018-06-27T06:47:48.745Z,22.10
2018-06-27T06:50:17.550Z,22.10
2018-06-27T06:52:46.429Z,22.00
2018-06-27T06:55:15.258Z,22.10
2018-06-27T06:57:44.102Z,22.10
2018-06-27T07:00:12.999Z,22.10
2018-06-27T07:02:41.916Z,22.10
2018-06-27T07:05:10.702Z,22.10
2018-06-27T07:07:39.552Z,22.10
2018-06-27T07:10:08.366Z,22.20
2018-06-27T07:12:37.199Z,22.20
2018-06-27T07:15:06.030Z,22.10
2018-06-27T07:17:34.846Z,22.10
2018-06-27T07:20:03.718Z,22.20
2018-06-27T07:22:32.534Z,22.20
2018-06-27T07:25:01.386Z,22.20
2018-06-27T07:27:30.202Z,22.20
2018-06-27T07:29:59.088Z,22.20
2018-06-27T07:32:28.112Z,22.20
2018-06-27T07:34:56.954Z,22.20
2018-06-27T07:37:25.778Z,22.30
2018-06-27T07:39:54.598Z,22.20
2018-06-27T07:42:23.429Z,22.30
2018-06-27T07:44:52.250Z,22.20
2018-06-27T07:47:21.062Z,22.30
2018-06-27T07:49:49.974Z,22.30
2018-06-27T07:52:18.766Z,22.30
2018-06-27T07:54:47.590Z,22.30
2018-06-27T07:57:16.418Z,22.40
2018-06-27T07:59:45.239Z,22.50
2018-06-27T08:02:14.087Z,22.50
2018-06-27T08:04:42.897Z,22.50
2018-06-27T08:07:11.761Z,22.50
2018-06-27T08:09:40.574Z,22.50
2018-06-27T08:12:09.399Z,22.50
2018-06-27T08:14:38.380Z,22.50
2018-06-27T08:17:07.293Z,22.50
2018-06-27T08:19:36.239Z,22.60
2018-06-27T08:22:05.327Z,22.50
2018-06-27T08:24:34.774Z,22.40
2018-06-27T08:27:03.607Z,22.20
2018-06-27T08:29:32.446Z,22.10
2018-06-27T08:32:01.316Z,22.10
2018-06-27T08:34:30.125Z,22.00
2018-06-27T08:39:27.435Z,22.00
2018-06-27T08:41:56.255Z,22.00
2018-06-27T08:44:25.076Z,22.00
2018-06-27T08:46:53.920Z,22.20
2018-06-27T08:49:22.758Z,22.20
2018-06-27T08:51:51.598Z,22.10
2018-06-27T08:54:20.442Z,22.00
2018-06-27T08:56:49.242Z,22.10
2018-06-27T08:59:18.070Z,22.10
2018-06-27T09:01:46.906Z,22.10
2018-06-27T09:04:15.739Z,22.00
2018-06-27T09:06:44.558Z,22.10
2018-06-27T09:11:42.680Z,22.10
2018-06-27T09:14:11.530Z,22.10
2018-06-27T09:16:40.362Z,22.10
2018-06-27T09:19:09.194Z,22.10
2018-06-27T09:21:38.019Z,22.10
2018-06-27T09:24:06.834Z,22.20
2018-06-27T09:26:35.668Z,22.30
2018-06-27T09:29:04.599Z,22.30
2018-06-27T09:31:33.419Z,22.20
2018-06-27T09:34:02.284Z,22.10
2018-06-27T09:38:59.598Z,22.10
2018-06-27T09:41:28.658Z,22.00
2018-06-27T09:43:57.528Z,22.20
2018-06-27T09:46:26.342Z,22.10
2018-06-27T09:48:55.310Z,22.20
2018-06-27T09:51:24.139Z,22.30
2018-06-27T09:53:52.994Z,22.30
2018-06-27T09:56:22.194Z,22.30
2018-06-27T09:58:51.063Z,22.30
2018-06-27T10:01:19.937Z,22.30
2018-06-27T10:06:17.228Z,22.40
2018-06-27T10:08:46.126Z,22.40
2018-06-27T10:11:15.009Z,22.40
2018-06-27T10:13:43.986Z,22.50
2018-06-27T10:16:12.865Z,22.50
2018-06-27T10:18:41.715Z,22.70
2018-06-27T10:21:10.542Z,22.80
2018-06-27T10:23:39.358Z,22.70
2018-06-27T10:26:08.497Z,22.60
2018-06-27T10:28:38.238Z,22.60
2018-06-27T10:31:07.065Z,22.50
2018-06-27T10:33:35.899Z,22.70
2018-06-27T10:38:33.238Z,22.90
2018-06-27T10:41:02.083Z,23.10
2018-06-27T10:43:30.915Z,23.10
2018-06-27T10:45:59.755Z,22.90
2018-06-27T10:48:28.607Z,22.80
2018-06-27T10:50:57.459Z,22.80
2018-06-27T10:53:26.331Z,22.80
2018-06-27T10:55:55.151Z,22.80
2018-06-27T10:58:24.006Z,22.80
2018-06-27T11:00:52.876Z,22.90
2018-06-27T11:03:21.747Z,22.90
2018-06-27T11:05:50.556Z,22.90
2018-06-27T11:08:19.534Z,23.00
2018-06-27T11:10:48.475Z,22.90
2018-06-27T11:13:17.365Z,23.10
2018-06-27T11:15:46.523Z,23.00
2018-06-27T11:18:15.394Z,22.90
2018-06-27T11:20:44.223Z,23.10
2018-06-27T11:23:13.042Z,23.20
2018-06-27T11:25:41.886Z,23.10
2018-06-27T11:28:10.722Z,23.10
2018-06-27T11:30:39.540Z,23.10
2018-06-27T11:33:08.544Z,23.30
2018-06-27T11:35:37.371Z,23.20
2018-06-27T11:38:06.197Z,23.20
2018-06-27T11:40:35.066Z,23.30
2018-06-27T11:43:03.902Z,23.20
2018-06-27T11:45:32.750Z,23.20
2018-06-27T11:48:01.586Z,23.30
2018-06-27T11:50:30.411Z,23.20
2018-06-27T11:52:59.272Z,23.20
2018-06-27T11:55:28.114Z,23.20
2018-06-27T11:57:57.003Z,23.30
2018-06-27T12:02:54.325Z,23.40
2018-06-27T12:05:23.178Z,23.40
2018-06-27T12:07:52.052Z,23.40
2018-06-27T12:12:49.443Z,23.60
2018-06-27T12:15:18.492Z,23.60
2018-06-27T12:17:47.378Z,23.60
2018-06-27T12:20:16.271Z,23.60
2018-06-27T12:22:45.163Z,23.60
2018-06-27T12:25:14.042Z,23.60
2018-06-27T12:27:42.918Z,23.70
2018-06-27T12:30:17.737Z,23.70
2018-06-27T12:32:46.594Z,23.80
2018-06-27T12:35:15.486Z,23.80
2018-06-27T12:37:44.384Z,23.80
2018-06-27T12:40:13.263Z,23.90
2018-06-27T12:42:42.108Z,23.90
2018-06-27T12:45:11.277Z,23.90
2018-06-27T12:47:40.971Z,23.90
2018-06-27T12:50:10.187Z,23.90
2018-06-27T12:52:39.155Z,23.90
2018-06-27T12:55:11.034Z,24.00
2018-06-27T12:57:39.909Z,24.00
2018-06-27T13:00:09.605Z,24.10
2018-06-27T13:02:38.487Z,24.00
2018-06-27T13:05:07.826Z,24.00
2018-06-27T13:07:36.696Z,24.00
2018-06-27T13:10:06.957Z,24.10
2018-06-27T13:12:35.939Z,24.10
2018-06-27T13:15:05.535Z,24.10
2018-06-27T13:17:34.644Z,24.10
2018-06-27T13:20:03.607Z,24.20
2018-06-27T13:22:32.474Z,24.30
2018-06-27T13:25:01.331Z,24.50
2018-06-27T13:27:30.262Z,24.40
2018-06-27T13:29:59.134Z,24.40
2018-06-27T13:32:28.070Z,24.40
2018-06-27T13:34:56.996Z,24.40
2018-06-27T13:37:25.857Z,24.40
2018-06-27T13:39:54.716Z,24.40
2018-06-27T13:42:23.571Z,24.40
2018-06-27T13:44:52.421Z,24.40
2018-06-27T13:47:21.346Z,24.50
2018-06-27T13:49:50.239Z,24.50
2018-06-27T13:52:19.121Z,24.50
2018-06-27T13:54:58.720Z,24.50
2018-06-27T13:59:58.639Z,24.50
2018-06-27T14:02:27.568Z,24.60
2018-06-27T14:04:56.428Z,24.60
2018-06-27T14:07:25.279Z,24.70
2018-06-27T14:12:22.710Z,24.70
2018-06-27T14:14:51.564Z,24.70
2018-06-27T14:17:20.606Z,24.70
2018-06-27T14:19:49.446Z,24.80
2018-06-27T14:22:18.331Z,24.80
2018-06-27T14:24:47.177Z,24.80
2018-06-27T14:27:16.021Z,24.90
2018-06-27T14:29:44.866Z,24.70
2018-06-27T14:32:13.743Z,24.80
2018-06-27T14:34:42.635Z,24.80
2018-06-27T14:37:11.512Z,24.80
2018-06-27T14:39:40.367Z,24.80
2018-06-27T14:42:09.251Z,24.80
2018-06-27T14:44:38.205Z,24.90
2018-06-27T14:47:07.016Z,24.90
2018-06-27T14:49:35.930Z,24.90
2018-06-27T14:52:04.860Z,25.00
2018-06-27T14:54:33.643Z,25.10
2018-06-27T14:57:02.627Z,25.10
2018-06-27T14:59:31.556Z,25.10
2018-06-27T15:02:00.504Z,25.10
2018-06-27T15:04:29.564Z,25.10
2018-06-27T15:06:58.426Z,25.10
2018-06-27T15:09:27.267Z,25.10
2018-06-27T15:11:56.093Z,25.10
2018-06-27T15:14:24.982Z,25.10
2018-06-27T15:16:54.001Z,25.10
2018-06-27T15:19:23.026Z,25.00
2018-06-27T15:21:51.871Z,25.00
2018-06-27T15:24:20.743Z,25.00
2018-06-27T15:26:49.602Z,25.10
2018-06-27T15:29:18.604Z,25.00
2018-06-27T15:31:47.591Z,25.10
2018-06-27T15:34:16.503Z,25.10
2018-06-27T15:36:45.354Z,25.10
2018-06-27T15:39:14.239Z,25.20
2018-06-27T15:41:43.079Z,25.10
2018-06-27T15:44:11.932Z,25.10
2018-06-27T15:46:40.797Z,25.20
2018-06-27T15:49:10.391Z,25.30
2018-06-27T15:51:39.526Z,25.30
2018-06-27T16:16:44.239Z,25.30
2018-06-27T16:21:50.877Z,25.60
2018-06-27T16:24:19.841Z,25.60
2018-06-27T16:26:48.688Z,25.50
2018-06-27T16:29:17.544Z,25.50
2018-06-27T16:31:46.394Z,25.50
2018-06-27T16:34:15.264Z,25.50
2018-06-27T16:36:44.226Z,25.50
2018-06-27T16:39:14.451Z,25.50
2018-06-27T16:41:43.327Z,25.50
2018-06-27T16:44:12.926Z,25.50
2018-06-27T16:46:42.093Z,25.50
2018-06-27T16:49:11.802Z,25.40
2018-06-27T16:51:40.713Z,25.30
2018-06-27T16:56:43.883Z,25.30
2018-06-27T16:59:12.714Z,25.30
2018-06-27T17:01:41.614Z,25.30
2018-06-27T17:04:10.702Z,25.30
2018-06-27T17:06:39.484Z,25.40
2018-06-27T17:09:09.300Z,25.40
2018-06-27T17:11:38.550Z,25.40
2018-06-27T17:16:36.136Z,25.50
2018-06-27T17:19:05.142Z,25.50
2018-06-27T17:21:33.984Z,25.50
2018-06-27T17:24:02.877Z,25.50
2018-06-27T17:26:31.739Z,25.50
2018-06-27T17:29:00.599Z,25.60
2018-06-27T17:31:29.455Z,25.60
2018-06-27T17:36:26.967Z,25.60
2018-06-27T17:41:24.407Z,25.60
2018-06-27T17:43:53.267Z,25.60
2018-06-27T17:46:22.115Z,25.60
2018-06-27T17:48:50.955Z,25.60
2018-06-27T17:51:19.794Z,25.70
2018-06-27T17:53:48.663Z,25.70
2018-06-27T17:56:17.491Z,25.60
2018-06-27T17:58:46.331Z,25.70
2018-06-27T18:01:15.182Z,25.70
2018-06-27T18:03:44.267Z,25.70
2018-06-27T18:06:13.102Z,25.70
2018-06-27T18:08:42.036Z,25.60
2018-06-27T18:11:10.875Z,25.60
2018-06-27T18:13:39.745Z,25.80
2018-06-27T18:16:08.762Z,25.70
2018-06-27T18:18:37.615Z,25.70
2018-06-27T18:21:07.195Z,25.70
2018-06-27T18:23:36.547Z,25.70
2018-06-27T18:26:05.739Z,25.70
2018-06-27T18:28:34.566Z,25.80
2018-06-27T18:31:03.415Z,25.90
2018-06-27T18:33:32.371Z,25.80
2018-06-27T18:36:01.227Z,25.70
2018-06-27T18:38:30.122Z,25.70
2018-06-27T18:40:58.966Z,25.60
2018-06-27T18:43:27.858Z,25.60
2018-06-27T18:45:56.707Z,25.60
2018-06-27T18:48:25.568Z,25.70
2018-06-27T18:50:54.421Z,25.70
2018-06-27T18:53:23.319Z,25.60
2018-06-27T18:58:20.647Z,25.40
2018-06-27T19:00:49.622Z,25.40
2018-06-27T19:03:18.564Z,25.40
2018-06-27T19:05:47.355Z,25.30
2018-06-27T19:10:44.735Z,25.10
2018-06-27T19:13:13.576Z,25.10
2018-06-27T19:15:42.427Z,24.80
2018-06-27T19:18:11.310Z,24.70
2018-06-27T19:20:40.243Z,24.70
2018-06-27T19:23:09.096Z,24.40
2018-06-27T19:25:37.942Z,24.40
2018-06-27T19:28:06.779Z,24.40
2018-06-27T19:30:35.684Z,24.20
2018-06-27T19:33:04.559Z,24.10
2018-06-27T19:35:33.404Z,24.00
2018-06-27T19:38:02.227Z,23.90
2018-06-27T19:40:31.156Z,23.70
2018-06-27T19:43:00.052Z,23.70
2018-06-27T19:45:30.016Z,23.70
2018-06-27T19:47:58.846Z,23.50
2018-06-27T19:50:27.687Z,23.50
2018-06-27T19:52:56.526Z,23.30
2018-06-27T19:55:25.546Z,23.20
2018-06-27T20:00:22.699Z,23.10
2018-06-27T20:02:51.639Z,23.20
2018-06-27T20:05:20.636Z,23.10
2018-06-27T20:07:49.518Z,23.10
2018-06-27T20:10:18.489Z,22.90
2018-06-27T20:12:47.248Z,22.90
2018-06-27T20:15:16.194Z,22.80
2018-06-27T20:17:44.962Z,22.80
2018-06-27T20:20:13.864Z,22.70
2018-06-27T20:22:42.757Z,22.50
2018-06-27T20:27:40.116Z,22.60
2018-06-27T20:32:37.518Z,22.60
2018-06-27T20:35:06.562Z,22.40
2018-06-27T20:37:35.450Z,22.40
2018-06-27T20:40:04.336Z,22.40
2018-06-27T20:42:33.215Z,22.30
2018-06-27T20:45:02.113Z,22.40
2018-06-27T20:47:30.958Z,22.50
2018-06-27T20:49:59.828Z,22.50
2018-06-27T20:52:28.746Z,22.40
2018-06-27T20:54:57.663Z,22.20
2018-06-27T20:57:26.582Z,22.10
2018-06-27T20:59:55.451Z,22.10
2018-06-27T21:02:24.307Z,21.90
2018-06-27T21:04:53.155Z,21.90
2018-06-27T21:07:22.019Z,21.90
2018-06-27T21:09:50.896Z,22.10
2018-06-27T21:12:19.746Z,22.00
2018-06-27T21:14:48.726Z,22.00
2018-06-27T21:17:17.475Z,21.90
2018-06-27T21:19:46.347Z,22.10
2018-06-27T21:22:15.231Z,21.70
2018-06-27T21:24:44.074Z,21.80
2018-06-27T21:27:12.912Z,22.30
2018-06-27T21:29:41.751Z,22.20
2018-06-27T21:32:10.615Z,22.20
2018-06-27T21:34:39.518Z,22.20
2018-06-27T21:37:08.372Z,22.40
2018-06-27T21:39:37.222Z,22.10
2018-06-27T21:42:06.095Z,22.20
2018-06-27T21:44:36.083Z,22.20
2018-06-27T21:47:05.323Z,21.80
2018-06-27T21:49:34.571Z,21.80
2018-06-27T21:52:03.800Z,22.40
2018-06-27T21:54:33.066Z,22.30
2018-06-27T21:57:01.890Z,21.80
2018-06-27T21:59:30.741Z,22.20
2018-06-27T22:01:59.600Z,22.40
2018-06-27T22:04:28.563Z,22.50
2018-06-27T22:06:57.426Z,22.30
2018-06-27T22:09:26.772Z,22.10
2018-06-27T22:11:55.668Z,21.80
2018-06-27T22:14:24.506Z,21.60
2018-06-27T22:16:53.421Z,21.60
2018-06-27T22:19:22.282Z,21.50
2018-06-27T22:24:19.615Z,22.50
2018-06-27T22:26:48.503Z,22.90
2018-06-27T22:29:17.349Z,23.20
2018-06-27T22:31:46.282Z,23.30
2018-06-27T22:34:15.146Z,23.40
2018-06-27T22:36:43.999Z,23.40
2018-06-27T22:39:13.779Z,23.40
2018-06-27T22:41:42.759Z,23.40
2018-06-27T22:44:11.618Z,23.40
2018-06-27T22:46:40.463Z,23.40
2018-06-27T22:49:09.298Z,23.40
2018-06-27T22:51:38.122Z,23.40
2018-06-27T22:54:07.018Z,23.40
2018-06-27T22:56:35.883Z,23.40
2018-06-27T22:59:04.700Z,23.40
2018-06-27T23:01:33.542Z,23.40
2018-06-27T23:04:02.400Z,23.40
2018-06-27T23:06:31.182Z,23.40
2018-06-27T23:09:00.029Z,23.40
2018-06-27T23:11:28.827Z,23.40
2018-06-27T23:13:57.647Z,23.40
2018-06-27T23:18:55.937Z,23.40
2018-06-27T23:21:24.755Z,23.40
2018-06-27T23:23:53.592Z,23.40
2018-06-27T23:26:22.423Z,23.40
2018-06-27T23:28:51.280Z,23.40
2018-06-27T23:31:20.099Z,23.40
2018-06-27T23:33:48.914Z,23.40
2018-06-27T23:36:17.730Z,23.40
2018-06-27T23:38:46.650Z,23.40
2018-06-27T23:43:43.990Z,23.40
2018-06-27T23:46:12.870Z,23.40
2018-06-27T23:48:41.691Z,23.40
2018-06-27T23:53:39.015Z,23.40
2018-06-27T23:56:07.840Z,23.40
2018-06-27T23:58:36.712Z,23.40
